Time;durP1;ratioP1;P1;durP2;ratioP2;P2;SDS_P1;SDS_P2;PMS_P1;PMS_P2;Temp;Humidity;BMP_temperature;BMP_pressure;BME280_temperature;BME280_humidity;BME280_pressure;Samples;Min_cycle;Max_cycle;Signal;HPM_P1;HPM_P2
2022/06/16 00:01:40;;;;;;;8.18;5.13;;;15.60;99.90;;;;;;5106138;28;20054;-73
2022/06/16 00:04:06;;;;;;;10.25;4.68;;;15.60;99.90;;;;;;5107913;28;20089;-73
2022/06/16 00:06:33;;;;;;;7.80;5.18;;;15.60;99.90;;;;;;5106777;28;20066;-73
2022/06/16 00:08:58;;;;;;;6.83;4.63;;;15.60;99.90;;;;;;5108453;28;20047;-73
2022/06/16 00:11:24;;;;;;;7.28;4.72;;;15.60;99.90;;;;;;5089407;28;20550;-73
2022/06/16 00:13:51;;;;;;;8.25;5.07;;;15.60;99.90;;;;;;5107665;28;20054;-73
2022/06/16 00:16:19;;;;;;;7.57;5.00;;;15.60;99.90;;;;;;5072943;28;20045;-73
2022/06/16 00:18:45;;;;;;;8.15;4.55;;;15.60;99.90;;;;;;5106881;28;20043;-73
2022/06/16 00:21:11;;;;;;;7.65;4.93;;;15.60;99.90;;;;;;5088106;28;20040;-73
2022/06/16 00:23:38;;;;;;;6.83;5.03;;;15.60;99.90;;;;;;5107446;28;20043;-73
2022/06/16 00:26:03;;;;;;;7.47;5.00;;;15.60;99.90;;;;;;5103586;28;20293;-73
2022/06/16 00:28:29;;;;;;;8.20;4.68;;;15.60;99.90;;;;;;5082718;28;20047;-73
2022/06/16 00:31:03;;;;;;;9.85;5.07;;;15.50;99.90;;;;;;5073222;28;20048;-73
2022/06/16 00:33:29;;;;;;;9.52;5.75;;;15.50;99.90;;;;;;5106921;28;20088;-73
2022/06/16 00:35:55;;;;;;;10.40;5.53;;;15.50;99.90;;;;;;5109115;28;20039;-73
2022/06/16 00:38:21;;;;;;;8.43;4.93;;;15.50;99.90;;;;;;5083217;28;20558;-72
2022/06/16 00:40:46;;;;;;;8.43;4.82;;;15.40;99.90;;;;;;5105941;28;20111;-73
2022/06/16 00:43:12;;;;;;;8.40;5.07;;;15.40;99.90;;;;;;5108536;28;20486;-73
2022/06/16 00:46:05;;;;;;;8.07;4.93;;;15.40;99.90;;;;;;5104384;28;20046;-73
2022/06/16 00:48:30;;;;;;;10.18;5.20;;;15.40;99.90;;;;;;5098910;28;20678;-73
2022/06/16 00:51:08;;;;;;;8.65;4.82;;;15.30;99.90;;;;;;5106993;28;20054;-73
2022/06/16 00:53:36;;;;;;;8.45;5.32;;;15.30;99.90;;;;;;5107097;28;20561;-73
2022/06/16 00:56:03;;;;;;;8.40;5.00;;;15.30;99.90;;;;;;5107504;28;20039;-72
2022/06/16 00:58:31;;;;;;;8.52;4.70;;;15.10;99.90;;;;;;5107288;28;20043;-73
2022/06/16 01:00:57;;;;;;;11.38;4.97;;;15.10;99.90;;;;;;5091227;28;20043;-73
2022/06/16 01:06:26;;;;;;;7.10;4.70;;;15.10;99.90;;;;;;5101654;28;20388;-73
2022/06/16 01:09:04;;;;;;;10.60;5.63;;;15.10;99.90;;;;;;5106898;28;20044;-73
2022/06/16 01:15:21;;;;;;;8.85;5.03;;;15.20;99.90;;;;;;5107525;28;20043;-73
2022/06/16 01:18:15;;;;;;;8.38;5.15;;;15.10;99.90;;;;;;5106286;28;20616;-73
2022/06/16 01:20:48;;;;;;;9.77;4.85;;;15.00;99.90;;;;;;5079455;28;20089;-73
2022/06/16 01:23:22;;;;;;;8.93;5.60;;;15.00;99.90;;;;;;5102454;28;20130;-73
2022/06/16 01:26:02;;;;;;;9.82;5.55;;;14.90;99.90;;;;;;5106166;28;20463;-73
2022/06/16 01:28:52;;;;;;;10.38;5.40;;;14.80;99.90;;;;;;5108036;28;20040;-73
2022/06/16 01:31:28;;;;;;;8.52;5.28;;;14.80;99.90;;;;;;5054162;28;20406;-73
2022/06/16 01:34:11;;;;;;;11.10;6.10;;;14.70;99.90;;;;;;5105078;28;20043;-73
2022/06/16 01:36:47;;;;;;;10.43;5.93;;;14.70;99.90;;;;;;5106092;28;20069;-73
2022/06/16 01:39:20;;;;;;;13.00;6.50;;;14.70;99.90;;;;;;5105295;28;20039;-73
2022/06/16 01:41:59;;;;;;;9.38;5.75;;;14.70;99.90;;;;;;5106837;28;20107;-73
2022/06/16 01:44:40;;;;;;;9.63;5.95;;;14.70;99.90;;;;;;5104377;28;20046;-73
2022/06/16 01:47:14;;;;;;;9.02;6.10;;;14.80;99.90;;;;;;5108647;28;20093;-72
2022/06/16 01:50:04;;;;;;;8.20;6.35;;;14.70;99.90;;;;;;5106680;28;20042;-73
2022/06/16 01:52:42;;;;;;;11.70;6.57;;;14.70;99.90;;;;;;5107894;28;20043;-73
2022/06/16 01:55:14;;;;;;;10.20;6.72;;;14.60;99.90;;;;;;5103384;28;20040;-73
2022/06/16 01:57:50;;;;;;;10.80;6.80;;;14.60;99.90;;;;;;5093323;28;20040;-73
2022/06/16 02:00:20;;;;;;;10.70;6.90;;;14.50;99.90;;;;;;5103306;28;20738;-73
2022/06/16 02:02:51;;;;;;;9.30;6.28;;;14.50;99.90;;;;;;5107229;28;20053;-73
2022/06/16 02:05:29;;;;;;;13.95;7.00;;;14.40;99.90;;;;;;5086268;28;20067;-74
2022/06/16 02:08:15;;;;;;;10.52;6.18;;;14.40;99.90;;;;;;5108698;28;20044;-73
2022/06/16 02:10:55;;;;;;;8.47;6.63;;;14.30;99.90;;;;;;5090493;28;20065;-73
2022/06/16 02:13:34;;;;;;;9.98;6.93;;;14.30;99.90;;;;;;5104801;28;20293;-73
2022/06/16 02:16:18;;;;;;;11.20;6.78;;;14.30;99.90;;;;;;5105986;28;20764;-73
2022/06/16 02:18:45;;;;;;;9.18;6.70;;;14.30;99.90;;;;;;5104614;28;20188;-74
2022/06/16 02:21:18;;;;;;;9.98;6.57;;;14.30;99.90;;;;;;5107523;28;20382;-73
2022/06/16 02:23:45;;;;;;;9.85;6.55;;;14.20;99.90;;;;;;5091438;28;20036;-73
2022/06/16 02:26:11;;;;;;;9.30;7.03;;;14.20;99.90;;;;;;5109062;28;20043;-73
2022/06/16 02:28:51;;;;;;;11.27;7.18;;;14.10;99.90;;;;;;5111059;28;20301;-73
2022/06/16 02:31:23;;;;;;;8.10;6.40;;;14.10;99.90;;;;;;5109087;28;20056;-73
2022/06/16 02:34:09;;;;;;;8.10;6.45;;;14.10;99.90;;;;;;5108962;28;20051;-73
2022/06/16 02:37:15;;;;;;;11.02;6.90;;;14.10;99.90;;;;;;5094191;28;20108;-73
2022/06/16 02:39:47;;;;;;;;;;;14.10;99.90;;;;;;5048325;28;20091;-73
2022/06/16 02:42:50;;;;;;;11.18;7.40;;;14.00;99.90;;;;;;5090819;28;19920;-73
2022/06/16 02:45:41;;;;;;;10.73;6.82;;;14.00;99.90;;;;;;5084904;28;20109;-73
2022/06/16 02:48:22;;;;;;;10.75;7.28;;;14.00;99.90;;;;;;5088559;28;20047;-73
2022/06/16 02:51:00;;;;;;;9.68;7.38;;;14.00;99.90;;;;;;5079207;28;20399;-72
2022/06/16 02:54:07;;;;;;;11.15;6.88;;;14.00;99.90;;;;;;5074999;28;20143;-73
2022/06/16 02:56:52;;;;;;;10.18;7.30;;;13.90;99.90;;;;;;5109600;28;20048;-72
2022/06/16 02:59:53;;;;;;;9.07;7.00;;;13.90;99.90;;;;;;5089030;28;20050;-73
2022/06/16 03:02:20;;;;;;;10.15;7.88;;;13.80;99.90;;;;;;5087739;28;20056;-73
2022/06/16 03:04:54;;;;;;;11.20;7.18;;;13.90;99.90;;;;;;5104814;28;20674;-73
2022/06/16 03:07:20;;;;;;;10.90;7.55;;;13.90;99.90;;;;;;5111337;28;20035;-73
2022/06/16 03:09:46;;;;;;;10.30;7.10;;;13.80;99.90;;;;;;5109171;28;20039;-73
2022/06/16 03:12:13;;;;;;;12.88;7.72;;;13.80;99.90;;;;;;5108690;28;20059;-73
2022/06/16 03:14:39;;;;;;;10.68;7.93;;;13.80;99.90;;;;;;5107606;28;20116;-73
2022/06/16 03:17:06;;;;;;;13.48;7.50;;;13.80;99.90;;;;;;5100495;28;20558;-73
2022/06/16 03:19:32;;;;;;;11.48;8.27;;;13.80;99.90;;;;;;5094909;28;20035;-73
2022/06/16 03:21:58;;;;;;;10.80;8.15;;;13.80;99.90;;;;;;5085652;28;20394;-73
2022/06/16 03:24:24;;;;;;;12.75;7.38;;;13.80;99.90;;;;;;5094593;28;20039;-73
2022/06/16 03:26:49;;;;;;;11.48;7.80;;;13.80;99.90;;;;;;5109321;28;20067;-73
2022/06/16 03:29:15;;;;;;;13.05;7.70;;;13.80;99.90;;;;;;5090070;28;20239;-73
2022/06/16 03:31:41;;;;;;;11.45;7.53;;;13.80;99.90;;;;;;5107752;28;20130;-73
2022/06/16 03:34:07;;;;;;;10.68;7.32;;;13.90;99.90;;;;;;5111158;28;20039;-73
2022/06/16 03:36:35;;;;;;;11.77;7.78;;;13.90;99.90;;;;;;5073559;28;20072;-73
2022/06/16 03:39:02;;;;;;;10.73;7.47;;;13.90;99.90;;;;;;5109153;28;20050;-72
2022/06/16 03:41:28;;;;;;;;;;;14.00;99.90;;;;;;5111628;28;20074;-73
2022/06/16 03:43:54;;;;;;;11.88;7.93;;;13.90;99.90;;;;;;5102305;28;20348;-73
2022/06/16 03:46:20;;;;;;;10.93;7.95;;;13.90;99.90;;;;;;5087437;28;20043;-73
2022/06/16 03:48:46;;;;;;;11.38;7.57;;;13.90;99.90;;;;;;5090677;28;20044;-73
2022/06/16 03:51:12;;;;;;;11.38;7.97;;;13.90;99.90;;;;;;5108218;28;20078;-73
2022/06/16 03:53:38;;;;;;;11.25;7.53;;;13.90;99.90;;;;;;5106669;28;20071;-73
2022/06/16 03:56:05;;;;;;;10.82;7.13;;;13.90;99.90;;;;;;5109078;28;20044;-73
2022/06/16 03:58:31;;;;;;;13.27;7.83;;;13.90;99.90;;;;;;5107780;28;20044;-73
2022/06/16 04:00:56;;;;;;;10.07;7.47;;;14.00;99.90;;;;;;5105341;28;20418;-73
2022/06/16 04:06:06;;;;;;;11.38;7.22;;;14.10;99.90;;;;;;5107961;28;20407;-73
2022/06/16 04:08:32;;;;;;;11.27;8.45;;;14.00;99.90;;;;;;5088204;28;20055;-73
2022/06/16 04:10:58;;;;;;;10.73;8.32;;;14.00;99.90;;;;;;5089700;28;20554;-73
2022/06/16 04:13:23;;;;;;;14.23;8.50;;;14.10;99.90;;;;;;5089523;28;20126;-73
2022/06/16 04:15:51;;;;;;;12.85;8.45;;;14.00;99.90;;;;;;5090212;28;20071;-73
2022/06/16 04:18:19;;;;;;;9.98;8.30;;;14.00;99.90;;;;;;5089070;28;20078;-73
2022/06/16 04:20:46;;;;;;;12.55;8.85;;;14.00;99.90;;;;;;5089658;28;20031;-72
2022/06/16 04:23:13;;;;;;;11.75;8.35;;;13.90;99.90;;;;;;5108922;28;20047;-73
2022/06/16 04:25:38;;;;;;;11.35;7.80;;;13.90;99.90;;;;;;5088967;28;20048;-73
2022/06/16 04:28:06;;;;;;;10.15;7.88;;;13.90;99.90;;;;;;5081932;28;20089;-73
2022/06/16 04:30:33;;;;;;;10.82;7.72;;;13.90;99.90;;;;;;5097011;28;20056;-73
2022/06/16 04:32:59;;;;;;;12.57;8.80;;;13.90;99.90;;;;;;5108830;28;20155;-73
2022/06/16 04:35:27;;;;;;;11.45;8.07;;;13.90;99.90;;;;;;5103537;28;20319;-73
2022/06/16 04:37:53;;;;;;;14.00;9.00;;;14.00;99.90;;;;;;5071605;28;20040;-74
2022/06/16 04:40:19;;;;;;;11.52;8.43;;;14.00;99.90;;;;;;5070179;28;20487;-74
2022/06/16 04:42:45;;;;;;;10.77;8.20;;;14.10;99.90;;;;;;5108210;28;20551;-73
2022/06/16 04:45:11;;;;;;;14.25;9.32;;;14.20;99.90;;;;;;5107601;28;20134;-73
2022/06/16 04:47:40;;;;;;;12.13;8.57;;;14.30;99.90;;;;;;5090722;28;20047;-74
2022/06/16 04:50:07;;;;;;;11.32;8.40;;;14.50;99.90;;;;;;5090007;28;20051;-74
2022/06/16 04:52:33;;;;;;;11.55;7.88;;;14.50;99.90;;;;;;5089520;28;20042;-73
2022/06/16 04:54:59;;;;;;;12.80;8.18;;;14.70;99.90;;;;;;5100995;28;20048;-74
2022/06/16 04:57:25;;;;;;;11.80;8.18;;;14.80;99.90;;;;;;5096559;28;20040;-73
2022/06/16 04:59:53;;;;;;;11.85;8.23;;;14.80;99.90;;;;;;5093397;28;20075;-74
2022/06/16 05:02:19;;;;;;;12.13;8.00;;;15.00;99.90;;;;;;5090145;28;20051;-74
2022/06/16 05:04:45;;;;;;;12.18;7.10;;;15.00;99.90;;;;;;5107649;28;20039;-74
2022/06/16 05:07:11;;;;;;;11.25;6.97;;;15.10;99.90;;;;;;5099292;28;20123;-73
2022/06/16 05:09:37;;;;;;;10.13;6.75;;;15.10;99.90;;;;;;5105135;28;20047;-72
2022/06/16 05:12:03;;;;;;;7.57;5.45;;;15.20;99.90;;;;;;5090166;28;20376;-73
2022/06/16 05:14:28;;;;;;;11.40;6.80;;;15.30;99.90;;;;;;5103547;28;20040;-73
2022/06/16 05:17:04;;;;;;;11.40;6.65;;;15.40;99.90;;;;;;5108309;28;20065;-75
2022/06/16 05:19:30;;;;;;;8.20;5.78;;;15.50;99.90;;;;;;5107544;28;20075;-73
2022/06/16 05:21:58;;;;;;;7.95;5.05;;;15.60;99.90;;;;;;5089294;28;20394;-73
2022/06/16 05:24:24;;;;;;;;;;;15.70;99.90;;;;;;5108744;28;20036;-73
2022/06/16 05:26:50;;;;;;;8.45;5.13;;;15.70;99.90;;;;;;5109202;28;19980;-72
2022/06/16 05:29:15;;;;;;;10.07;4.80;;;15.80;99.90;;;;;;5106165;28;20047;-73
2022/06/16 05:31:41;;;;;;;8.55;4.95;;;15.90;99.90;;;;;;5092404;28;20060;-74
2022/06/16 05:34:07;;;;;;;8.35;4.88;;;15.90;99.90;;;;;;5084037;28;20063;-73
2022/06/16 05:36:35;;;;;;;6.95;4.43;;;16.00;99.90;;;;;;5101081;28;20039;-73
2022/06/16 05:39:00;;;;;;;7.18;4.32;;;15.90;99.90;;;;;;5106212;28;20501;-73
2022/06/16 05:41:26;;;;;;;7.43;4.53;;;15.90;99.90;;;;;;5090437;28;20150;-73
2022/06/16 05:43:52;;;;;;;7.65;4.50;;;16.00;99.90;;;;;;5104402;28;20094;-73
2022/06/16 05:46:20;;;;;;;8.90;5.07;;;16.00;99.90;;;;;;5105775;28;20494;-73
2022/06/16 05:48:46;;;;;;;9.43;4.80;;;16.10;99.90;;;;;;5081438;28;20044;-73
2022/06/16 05:51:14;;;;;;;10.57;4.70;;;16.10;99.90;;;;;;5097822;28;20028;-73
2022/06/16 05:53:41;;;;;;;8.02;4.25;;;16.20;99.90;;;;;;5076059;28;20055;-73
2022/06/16 05:56:07;;;;;;;7.45;4.10;;;16.30;99.90;;;;;;5106546;28;20035;-73
2022/06/16 05:58:33;;;;;;;8.13;4.53;;;16.50;99.90;;;;;;5103616;28;20039;-71
2022/06/16 06:00:59;;;;;;;7.60;4.60;;;16.60;99.90;;;;;;5086693;28;20141;-70
2022/06/16 06:03:25;;;;;;;8.23;4.82;;;16.50;99.90;;;;;;5101259;28;20109;-71
2022/06/16 06:05:51;;;;;;;7.20;3.67;;;16.50;99.90;;;;;;5082406;28;20044;-72
2022/06/16 06:16:41;;;;;;;8.77;4.03;;;16.40;99.90;;;;;;5091101;28;20040;-73
2022/06/16 06:19:26;;;;;;;;;;;16.50;99.90;;;;;;5086478;28;20036;-73
2022/06/16 06:21:58;;;;;;;5.75;3.42;;;16.40;99.90;;;;;;5095682;28;20586;-73
2022/06/16 06:24:26;;;;;;;5.40;3.90;;;16.40;99.90;;;;;;5073590;28;20051;-73
2022/06/16 06:26:53;;;;;;;8.82;4.18;;;16.40;99.90;;;;;;5081916;28;20051;-74
2022/06/16 06:29:19;;;;;;;;;;;16.50;99.90;;;;;;5098923;28;20039;-73
2022/06/16 06:31:45;;;;;;;6.07;3.30;;;16.60;99.90;;;;;;5094858;28;19931;-72
2022/06/16 06:34:12;;;;;;;7.05;3.40;;;16.60;99.90;;;;;;5068714;28;20066;-72
2022/06/16 06:36:37;;;;;;;5.22;3.35;;;16.70;99.90;;;;;;5072102;28;20068;-73
2022/06/16 06:39:03;;;;;;;8.60;3.80;;;16.70;99.90;;;;;;5085766;28;20090;-73
2022/06/16 06:41:32;;;;;;;6.78;4.05;;;16.80;99.90;;;;;;5078897;28;20043;-72
2022/06/16 06:43:59;;;;;;;8.85;4.30;;;16.80;99.90;;;;;;5079074;28;20130;-73
2022/06/16 06:46:25;;;;;;;;;;;16.90;99.90;;;;;;5068942;28;20036;-72
2022/06/16 06:48:50;;;;;;;3.80;3.00;;;16.90;99.90;;;;;;5079792;28;19994;-73
2022/06/16 06:51:16;;;;;;;5.72;3.13;;;16.90;99.90;;;;;;5076806;28;20163;-73
2022/06/16 06:53:41;;;;;;;5.97;3.28;;;16.90;99.90;;;;;;5098243;28;20043;-73
2022/06/16 06:56:09;;;;;;;4.80;2.05;;;17.00;99.90;;;;;;5090351;28;20040;-73
2022/06/16 06:58:34;;;;;;;7.85;2.33;;;17.10;99.90;;;;;;5069182;28;20355;-73
2022/06/16 07:01:01;;;;;;;4.63;1.80;;;17.20;99.90;;;;;;5103169;28;20047;-73
2022/06/16 07:03:28;;;;;;;5.17;1.80;;;17.30;99.90;;;;;;5097588;28;20127;-73
2022/06/16 07:05:54;;;;;;;5.85;1.88;;;17.30;99.90;;;;;;5073160;28;20047;-73
2022/06/16 07:08:20;;;;;;;3.95;1.58;;;17.40;99.90;;;;;;5100875;28;20036;-73
2022/06/16 07:10:45;;;;;;;6.38;1.52;;;17.50;99.90;;;;;;5106377;28;20062;-73
2022/06/16 07:13:11;;;;;;;6.13;1.55;;;17.60;99.90;;;;;;5100121;28;20044;-73
2022/06/16 07:15:37;;;;;;;3.03;1.50;;;17.60;99.90;;;;;;5104669;28;20074;-73
2022/06/16 07:18:05;;;;;;;5.65;1.67;;;17.70;99.90;;;;;;5087855;28;20101;-73
2022/06/16 07:20:31;;;;;;;5.28;1.40;;;17.80;99.90;;;;;;5104008;28;20692;-74
2022/06/16 07:22:57;;;;;;;4.00;1.70;;;17.80;99.90;;;;;;5101104;28;20048;-76
2022/06/16 07:25:22;;;;;;;4.28;1.70;;;17.90;99.90;;;;;;5095352;28;20052;-73
2022/06/16 07:27:48;;;;;;;5.63;1.90;;;18.00;99.90;;;;;;5081939;28;20058;-75
2022/06/16 07:30:17;;;;;;;3.17;1.30;;;18.10;99.90;;;;;;5101386;28;20048;-74
2022/06/16 07:32:44;;;;;;;5.65;1.30;;;18.20;99.90;;;;;;5098503;28;20035;-74
2022/06/16 07:35:12;;;;;;;2.92;1.73;;;18.30;99.90;;;;;;5100184;28;20446;-74
2022/06/16 07:37:38;;;;;;;4.22;1.35;;;18.30;99.90;;;;;;5102797;28;20032;-74
2022/06/16 07:40:05;;;;;;;5.22;1.30;;;18.40;99.90;;;;;;5090694;28;20043;-74
2022/06/16 07:42:31;;;;;;;;;;;18.40;99.90;;;;;;5099905;28;20125;-73
2022/06/16 07:44:57;;;;;;;3.65;1.20;;;18.40;99.90;;;;;;5107285;28;19923;-73
2022/06/16 07:47:22;;;;;;;4.25;1.52;;;18.40;99.90;;;;;;5102479;28;20044;-73
2022/06/16 07:49:49;;;;;;;4.00;1.70;;;18.40;99.90;;;;;;5106419;28;20047;-77
2022/06/16 07:52:16;;;;;;;3.03;1.38;;;18.50;99.90;;;;;;5104882;28;20150;-74
2022/06/16 07:54:43;;;;;;;2.85;1.40;;;18.50;99.90;;;;;;5107929;28;20422;-74
2022/06/16 07:57:10;;;;;;;3.65;1.40;;;18.60;99.90;;;;;;5081474;28;20040;-75
2022/06/16 07:59:35;;;;;;;2.70;1.30;;;18.70;99.90;;;;;;5084683;28;20047;-75
2022/06/16 08:02:02;;;;;;;2.22;1.00;;;18.70;99.90;;;;;;5071624;28;20526;-75
2022/06/16 08:04:29;;;;;;;1.58;1.02;;;18.80;99.90;;;;;;5097479;28;20570;-80
2022/06/16 08:07:00;;;;;;;4.10;1.30;;;18.90;99.90;;;;;;5088433;28;20093;-81
2022/06/16 08:09:27;;;;;;;3.42;1.10;;;18.90;99.90;;;;;;5109180;28;20052;-75
2022/06/16 08:12:10;;;;;;;2.97;1.13;;;19.00;99.90;;;;;;5100221;28;20040;-75
2022/06/16 08:14:42;;;;;;;6.63;1.45;;;19.10;99.30;;;;;;5075521;28;20035;-78
2022/06/16 08:17:12;;;;;;;3.95;1.40;;;19.10;99.90;;;;;;5081813;28;20040;-76
2022/06/16 08:19:39;;;;;;;5.63;1.65;;;19.20;99.90;;;;;;5087136;28;20044;-76
2022/06/16 08:22:05;;;;;;;3.33;1.15;;;19.30;99.90;;;;;;5098099;28;20042;-76
2022/06/16 08:24:31;;;;;;;2.25;0.90;;;19.40;99.90;;;;;;5103238;28;20039;-75
2022/06/16 08:26:58;;;;;;;4.85;1.67;;;19.50;99.10;;;;;;5078267;28;20051;-75
2022/06/16 08:29:25;;;;;;;3.13;1.08;;;19.60;98.10;;;;;;5099305;28;20081;-75
2022/06/16 08:31:51;;;;;;;3.65;1.00;;;19.60;96.20;;;;;;5101524;28;20421;-82
2022/06/16 08:34:17;;;;;;;3.77;1.03;;;19.70;95.70;;;;;;5101175;28;20720;-75
2022/06/16 08:36:52;;;;;;;3.50;1.17;;;19.70;95.20;;;;;;5096515;28;20115;-75
2022/06/16 08:39:18;;;;;;;4.45;0.98;;;19.80;93.60;;;;;;5087217;28;20054;-75
2022/06/16 08:41:50;;;;;;;4.60;1.25;;;19.80;95.10;;;;;;5097085;28;20040;-74
2022/06/16 08:44:29;;;;;;;3.70;1.05;;;19.90;94.70;;;;;;5089828;28;20440;-76
2022/06/16 08:47:19;;;;;;;3.22;1.13;;;19.90;90.30;;;;;;5097565;28;20044;-76
2022/06/16 08:49:55;;;;;;;3.35;1.20;;;19.90;88.00;;;;;;5071292;28;20048;-76
2022/06/16 08:52:39;;;;;;;2.53;1.10;;;19.90;90.30;;;;;;5097080;28;20044;-76
2022/06/16 08:55:21;;;;;;;3.50;1.20;;;19.90;92.10;;;;;;5080169;28;20036;-75
2022/06/16 08:57:59;;;;;;;5.15;1.52;;;19.90;92.70;;;;;;5104238;28;20043;-75
2022/06/16 09:00:51;;;;;;;2.85;1.35;;;19.90;94.60;;;;;;5090570;28;20043;-75
2022/06/16 09:03:39;;;;;;;3.60;1.23;;;20.10;93.10;;;;;;5067720;28;20055;-75
2022/06/16 09:06:11;;;;;;;3.00;1.30;;;20.20;91.00;;;;;;5074708;28;20074;-76
2022/06/16 09:08:51;;;;;;;4.22;1.50;;;20.20;94.80;;;;;;5099654;28;20035;-77
2022/06/16 09:11:48;;;;;;;4.32;1.48;;;20.30;92.80;;;;;;5073891;28;20075;-77
2022/06/16 09:18:00;;;;;;;3.25;1.58;;;20.40;91.70;;;;;;5100083;28;20067;-74
2022/06/16 09:20:37;;;;;;;4.35;1.52;;;20.50;91.70;;;;;;5081664;28;20043;-73
2022/06/16 09:23:25;;;;;;;4.15;1.60;;;20.50;94.20;;;;;;5102060;28;20071;-74
2022/06/16 09:26:16;;;;;;;4.07;1.73;;;20.60;93.90;;;;;;5090508;28;20542;-73
2022/06/16 09:29:09;;;;;;;4.88;1.60;;;20.60;91.20;;;;;;5098282;28;20048;-70
2022/06/16 09:31:42;;;;;;;3.78;1.73;;;20.70;87.80;;;;;;5080778;28;21111;-73
2022/06/16 09:34:17;;;;;;;2.90;1.52;;;20.70;86.20;;;;;;5087352;28;20048;-71
2022/06/16 09:36:50;;;;;;;4.32;2.00;;;20.80;89.60;;;;;;5069347;28;20044;-72
2022/06/16 09:39:24;;;;;;;3.85;1.70;;;20.80;87.60;;;;;;5092760;28;20048;-72
2022/06/16 09:45:04;;;;;;;5.10;2.10;;;20.90;87.00;;;;;;5078067;28;20048;-73
2022/06/16 09:47:36;;;;;;;4.63;1.80;;;20.90;85.00;;;;;;5081108;28;20475;-74
2022/06/16 09:50:25;;;;;;;3.95;1.80;;;20.90;93.30;;;;;;5097605;28;20047;-78
2022/06/16 09:52:57;;;;;;;3.20;1.60;;;21.10;88.30;;;;;;5079494;28;20376;-76
2022/06/16 09:55:35;;;;;;;3.83;2.08;;;21.10;87.70;;;;;;5080554;28;20550;-74
2022/06/16 09:58:24;;;;;;;5.07;1.88;;;21.20;89.50;;;;;;5102713;28;20035;-82
2022/06/16 10:00:54;;;;;;;3.65;1.90;;;21.20;92.30;;;;;;5090544;28;20091;-75
2022/06/16 10:03:46;;;;;;;3.70;2.05;;;21.30;90.10;;;;;;5095192;28;20047;-77
2022/06/16 10:06:24;;;;;;;4.60;1.90;;;21.40;90.00;;;;;;5092368;28;20040;-74
2022/06/16 10:09:18;;;;;;;5.00;1.83;;;21.30;86.40;;;;;;5084264;28;20047;-73
2022/06/16 10:11:50;;;;;;;4.85;2.42;;;21.40;90.20;;;;;;5080659;28;20086;-75
2022/06/16 10:14:27;;;;;;;5.03;2.00;;;21.40;85.60;;;;;;5087298;28;20150;-75
2022/06/16 10:17:15;;;;;;;5.57;2.33;;;21.50;85.40;;;;;;5088612;28;20046;-75
2022/06/16 10:19:44;;;;;;;5.55;2.40;;;21.50;85.80;;;;;;5087768;28;20503;-75
2022/06/16 10:22:13;;;;;;;4.03;2.42;;;21.60;87.70;;;;;;5105863;28;20521;-75
2022/06/16 10:25:05;;;;;;;5.97;3.10;;;21.60;83.10;;;;;;5081567;28;20075;-75
2022/06/16 10:27:58;;;;;;;4.68;2.30;;;21.70;87.60;;;;;;5097261;28;20069;-74
2022/06/16 10:30:32;;;;;;;5.50;2.47;;;21.70;95.00;;;;;;5045575;28;20043;-74
2022/06/16 10:33:19;;;;;;;5.00;2.20;;;21.90;86.30;;;;;;5088430;28;20062;-73
2022/06/16 10:36:18;;;;;;;7.43;2.78;;;22.00;89.10;;;;;;5092788;28;20058;-75
2022/06/16 10:39:03;;;;;;;7.38;2.45;;;22.10;77.60;;;;;;5090442;28;20044;-75
2022/06/16 10:41:54;;;;;;;4.43;2.38;;;22.10;73.30;;;;;;5072698;28;20092;-75
2022/06/16 10:44:24;;;;;;;4.85;2.33;;;22.00;77.70;;;;;;5073564;28;20048;-75
2022/06/16 10:46:57;;;;;;;5.85;2.78;;;22.00;78.30;;;;;;5090607;28;20040;-80
2022/06/16 10:49:29;;;;;;;8.48;3.20;;;22.00;78.70;;;;;;5084272;28;20051;-74
2022/06/16 10:52:02;;;;;;;5.80;2.45;;;22.10;82.00;;;;;;5081982;28;20039;-73
2022/06/16 10:54:34;;;;;;;6.15;2.90;;;22.20;81.10;;;;;;5101441;28;20087;-75
2022/06/16 10:57:19;;;;;;;6.15;2.75;;;22.30;82.30;;;;;;5092244;28;20071;-74
2022/06/16 10:59:51;;;;;;;6.15;2.85;;;22.40;79.30;;;;;;5104405;28;20108;-74
2022/06/16 11:02:25;;;;;;;6.53;3.40;;;22.40;80.20;;;;;;5097064;28;20076;-74
2022/06/16 11:05:01;;;;;;;5.72;2.80;;;22.40;72.80;;;;;;5081769;28;20455;-74
2022/06/16 11:07:34;;;;;;;6.78;3.17;;;22.50;76.70;;;;;;5076027;28;20093;-74
2022/06/16 11:10:37;;;;;;;5.63;3.05;;;22.40;73.50;;;;;;5096621;28;20059;-74
2022/06/16 11:13:04;;;;;;;5.00;2.97;;;22.40;72.80;;;;;;5029489;28;20686;-74
2022/06/16 11:15:35;;;;;;;6.82;2.90;;;22.40;75.50;;;;;;5071241;28;20647;-72
2022/06/16 11:18:04;;;;;;;6.32;2.70;;;22.40;72.00;;;;;;5098066;28;20048;-74
2022/06/16 11:20:43;;;;;;;6.60;2.88;;;22.50;69.30;;;;;;5075432;28;20158;-74
2022/06/16 11:23:22;;;;;;;6.93;2.95;;;22.60;64.60;;;;;;5107137;28;20075;-74
2022/06/16 11:26:09;;;;;;;6.45;3.00;;;22.60;66.20;;;;;;5084837;28;20551;-75
2022/06/16 11:29:15;;;;;;;5.93;2.80;;;22.50;65.50;;;;;;5091935;28;20055;-75
2022/06/16 11:31:45;;;;;;;7.95;3.50;;;22.50;70.70;;;;;;5084757;28;20050;-73
2022/06/16 11:34:21;;;;;;;7.65;3.63;;;22.50;66.90;;;;;;5077448;28;20116;-73
2022/06/16 11:37:06;;;;;;;4.90;3.10;;;22.50;67.80;;;;;;5090734;28;20089;-73
2022/06/16 11:39:56;;;;;;;7.13;3.00;;;22.60;63.20;;;;;;5088378;28;20312;-75
2022/06/16 11:42:56;;;;;;;5.20;2.90;;;22.60;71.20;;;;;;5092466;28;20055;-74
2022/06/16 11:45:42;;;;;;;6.43;3.35;;;22.80;69.40;;;;;;5086097;28;20052;-74
2022/06/16 11:48:20;;;;;;;9.18;3.47;;;22.80;68.80;;;;;;5099924;28;20028;-74
2022/06/16 11:51:01;;;;;;;7.03;4.03;;;23.00;68.80;;;;;;5105866;28;20046;-74
2022/06/16 11:53:37;;;;;;;7.40;3.38;;;23.10;64.60;;;;;;5109118;28;20040;-74
2022/06/16 11:56:26;;;;;;;5.95;3.17;;;23.20;66.30;;;;;;5099197;28;20051;-74
2022/06/16 11:59:08;;;;;;;5.55;3.05;;;23.30;69.10;;;;;;5037593;28;20394;-73
2022/06/16 12:01:43;;;;;;;5.93;3.17;;;23.40;71.30;;;;;;5109943;28;20444;-73
2022/06/16 12:04:41;;;;;;;6.07;3.80;;;23.50;68.10;;;;;;5082624;28;20047;-74
2022/06/16 12:07:10;;;;;;;6.63;3.20;;;23.50;64.50;;;;;;5091442;28;20059;-74
2022/06/16 12:09:41;;;;;;;7.13;3.60;;;23.40;67.30;;;;;;5105764;28;20036;-75
2022/06/16 12:12:20;;;;;;;7.80;3.22;;;23.50;66.20;;;;;;5105956;28;20501;-74
2022/06/16 12:15:17;;;;;;;7.93;3.45;;;23.70;70.00;;;;;;5091987;28;20048;-75
2022/06/16 12:18:04;;;;;;;6.75;3.65;;;23.90;68.30;;;;;;5103277;28;20126;-72
2022/06/16 12:20:53;;;;;;;6.50;3.58;;;24.00;68.70;;;;;;5104823;28;20044;-73
2022/06/16 12:23:28;;;;;;;7.53;3.50;;;24.00;63.10;;;;;;5093604;28;20044;-74
2022/06/16 12:26:16;;;;;;;;;;;;;;;;;;;;;
2022/06/16 12:28:47;;;;;;;6.80;3.58;;;24.10;66.40;;;;;;5095272;28;20059;-74
2022/06/16 12:31:21;;;;;;;6.10;3.28;;;24.20;62.60;;;;;;5104031;28;20099;-71
2022/06/16 12:33:46;;;;;;;5.93;3.42;;;24.20;63.60;;;;;;5097348;28;20510;-73
2022/06/16 12:36:40;;;;;;;5.40;3.10;;;24.20;66.30;;;;;;5091231;28;20075;-72
2022/06/16 12:39:11;;;;;;;6.32;2.90;;;24.30;63.90;;;;;;5090444;28;20055;-72
2022/06/16 12:41:45;;;;;;;5.88;2.95;;;24.30;61.20;;;;;;5092587;28;20123;-72
2022/06/16 12:44:38;;;;;;;7.53;3.20;;;24.40;63.60;;;;;;5077513;28;20592;-73
2022/06/16 12:47:19;;;;;;;6.57;3.33;;;24.40;59.20;;;;;;5094832;28;20044;-72
2022/06/16 12:49:52;;;;;;;8.32;3.20;;;24.20;60.50;;;;;;5087873;28;20055;-71
2022/06/16 12:52:39;;;;;;;3.65;2.60;;;24.00;65.10;;;;;;5107696;28;20039;-72
2022/06/16 12:55:24;;;;;;;5.78;3.22;;;24.10;66.30;;;;;;5108563;28;20040;-72
2022/06/16 12:58:01;;;;;;;5.53;3.08;;;24.20;66.10;;;;;;5087495;28;20075;-71
2022/06/16 13:00:34;;;;;;;5.20;2.75;;;24.40;65.60;;;;;;5089255;28;20043;-74
2022/06/16 13:03:13;;;;;;;7.40;2.70;;;24.40;61.80;;;;;;5081717;28;20447;-73
2022/06/16 13:05:39;;;;;;;6.00;3.20;;;24.60;66.80;;;;;;5108243;28;20040;-73
2022/06/16 13:08:06;;;;;;;9.20;3.78;;;24.60;60.60;;;;;;5097146;28;20040;-73
2022/06/16 13:10:41;;;;;;;6.93;3.58;;;24.60;58.80;;;;;;5083739;28;20039;-74
2022/06/16 13:13:08;;;;;;;9.23;3.33;;;24.40;56.80;;;;;;5099918;28;20043;-72
2022/06/16 13:15:39;;;;;;;;;;;24.40;58.60;;;;;;5072616;28;20035;-73
2022/06/16 13:18:21;;;;;;;5.35;3.05;;;24.40;64.30;;;;;;5071598;28;19931;-73
2022/06/16 13:20:54;;;;;;;8.02;3.05;;;24.50;58.90;;;;;;5093254;28;20067;-73
2022/06/16 13:23:30;;;;;;;6.22;2.97;;;24.60;59.10;;;;;;5076698;28;20055;-73
2022/06/16 13:26:14;;;;;;;;;;;24.70;60.20;;;;;;5094013;28;20046;-73
2022/06/16 13:28:40;;;;;;;5.70;2.97;;;24.70;61.10;;;;;;5101344;28;19927;-73
2022/06/16 13:31:09;;;;;;;11.00;3.58;;;25.00;61.70;;;;;;5069110;28;20520;-73
2022/06/16 13:33:49;;;;;;;7.13;3.05;;;25.10;58.40;;;;;;5094324;28;20054;-73
2022/06/16 13:36:56;;;;;;;4.97;2.70;;;25.10;55.60;;;;;;5088964;28;20054;-71
2022/06/16 13:39:59;;;;;;;7.32;3.05;;;24.80;54.70;;;;;;5097940;28;20559;-72
2022/06/16 13:43:00;;;;;;;10.38;3.10;;;24.50;59.40;;;;;;5086302;28;20122;-71
2022/06/16 13:45:29;;;;;;;5.47;2.85;;;24.30;59.50;;;;;;5045657;28;20051;-74